sensor_id;sensor_type;location;lat;lon;timestamp;pressure;altitude;pressure_sealevel;temperature
61595;BMP280;47397;48.194;11.632;2023-06-24T00:00:10;96826.97;;;17.18
61595;BMP280;47397;48.194;11.632;2023-06-24T00:01:11;96827.81;;;17.19
61595;BMP280;47397;48.194;11.632;2023-06-24T00:02:13;96830.59;;;17.13
61595;BMP280;47397;48.194;11.632;2023-06-24T00:03:13;96837.81;;;17.02
61595;BMP280;47397;48.194;11.632;2023-06-24T00:04:13;96823.63;;;17.16
61595;BMP280;47397;48.194;11.632;2023-06-24T00:05:14;96833.34;;;17.07
61595;BMP280;47397;48.194;11.632;2023-06-24T00:06:14;96827.16;;;17.14
61595;BMP280;47397;48.194;11.632;2023-06-24T00:07:15;96829.81;;;17.11
61595;BMP280;47397;48.194;11.632;2023-06-24T00:08:15;96830.16;;;17.00
61595;BMP280;47397;48.194;11.632;2023-06-24T00:09:16;96826.53;;;17.06
61595;BMP280;47397;48.194;11.632;2023-06-24T00:10:16;96833.00;;;17.17
61595;BMP280;47397;48.194;11.632;2023-06-24T00:11:17;96836.59;;;17.13
61595;BMP280;47397;48.194;11.632;2023-06-24T00:12:17;96828.03;;;17.13
61595;BMP280;47397;48.194;11.632;2023-06-24T00:13:18;96833.47;;;17.04
61595;BMP280;47397;48.194;11.632;2023-06-24T00:14:18;96833.19;;;17.13
61595;BMP280;47397;48.194;11.632;2023-06-24T00:15:19;96828.16;;;17.10
61595;BMP280;47397;48.194;11.632;2023-06-24T00:16:19;96832.44;;;16.84
61595;BMP280;47397;48.194;11.632;2023-06-24T00:17:21;96826.09;;;16.95
61595;BMP280;47397;48.194;11.632;2023-06-24T00:18:21;96827.25;;;17.11
61595;BMP280;47397;48.194;11.632;2023-06-24T00:19:23;96828.72;;;17.18
61595;BMP280;47397;48.194;11.632;2023-06-24T00:20:23;96819.22;;;17.20
61595;BMP280;47397;48.194;11.632;2023-06-24T00:21:24;96821.56;;;17.26
61595;BMP280;47397;48.194;11.632;2023-06-24T00:22:24;96820.78;;;17.24
61595;BMP280;47397;48.194;11.632;2023-06-24T00:23:25;96821.84;;;17.18
61595;BMP280;47397;48.194;11.632;2023-06-24T00:24:25;96825.31;;;17.17
61595;BMP280;47397;48.194;11.632;2023-06-24T00:25:26;96819.38;;;17.15
61595;BMP280;47397;48.194;11.632;2023-06-24T00:26:26;96823.41;;;17.23
61595;BMP280;47397;48.194;11.632;2023-06-24T00:27:27;96825.31;;;17.17
61595;BMP280;47397;48.194;11.632;2023-06-24T00:28:27;96825.13;;;17.22
61595;BMP280;47397;48.194;11.632;2023-06-24T00:29:28;96820.47;;;17.08
61595;BMP280;47397;48.194;11.632;2023-06-24T00:30:28;96819.63;;;17.08
61595;BMP280;47397;48.194;11.632;2023-06-24T00:31:28;96823.53;;;16.95
61595;BMP280;47397;48.194;11.632;2023-06-24T00:32:30;96817.75;;;17.13
61595;BMP280;47397;48.194;11.632;2023-06-24T00:33:31;96827.34;;;17.08
61595;BMP280;47397;48.194;11.632;2023-06-24T00:34:31;96822.13;;;17.09
61595;BMP280;47397;48.194;11.632;2023-06-24T00:35:31;96825.47;;;17.13
61595;BMP280;47397;48.194;11.632;2023-06-24T00:36:32;96819.13;;;16.98
61595;BMP280;47397;48.194;11.632;2023-06-24T00:37:32;96814.72;;;17.02
61595;BMP280;47397;48.194;11.632;2023-06-24T00:38:33;96819.91;;;17.00
61595;BMP280;47397;48.194;11.632;2023-06-24T00:39:33;96812.97;;;17.02
61595;BMP280;47397;48.194;11.632;2023-06-24T00:40:34;96815.38;;;17.07
61595;BMP280;47397;48.194;11.632;2023-06-24T00:41:35;96809.63;;;17.00
61595;BMP280;47397;48.194;11.632;2023-06-24T00:42:36;96820.72;;;17.01
61595;BMP280;47397;48.194;11.632;2023-06-24T00:43:36;96816.28;;;17.06
61595;BMP280;47397;48.194;11.632;2023-06-24T00:44:36;96816.44;;;17.01
61595;BMP280;47397;48.194;11.632;2023-06-24T00:45:37;96817.28;;;17.02
61595;BMP280;47397;48.194;11.632;2023-06-24T00:46:38;96812.88;;;17.05
61595;BMP280;47397;48.194;11.632;2023-06-24T00:47:40;96812.13;;;17.02
61595;BMP280;47397;48.194;11.632;2023-06-24T00:48:41;96813.09;;;16.99
61595;BMP280;47397;48.194;11.632;2023-06-24T00:49:41;96815.50;;;17.04
61595;BMP280;47397;48.194;11.632;2023-06-24T00:50:42;96807.72;;;17.05
61595;BMP280;47397;48.194;11.632;2023-06-24T00:51:42;96807.53;;;17.11
61595;BMP280;47397;48.194;11.632;2023-06-24T00:52:43;96807.53;;;17.11
61595;BMP280;47397;48.194;11.632;2023-06-24T00:53:43;96813.81;;;17.03
61595;BMP280;47397;48.194;11.632;2023-06-24T00:54:44;96811.19;;;17.04
61595;BMP280;47397;48.194;11.632;2023-06-24T00:55:44;96805.06;;;17.08
61595;BMP280;47397;48.194;11.632;2023-06-24T00:56:46;96799.97;;;17.07
61595;BMP280;47397;48.194;11.632;2023-06-24T00:57:49;96794.47;;;17.17
61595;BMP280;47397;48.194;11.632;2023-06-24T00:58:50;96796.63;;;17.05
61595;BMP280;47397;48.194;11.632;2023-06-24T00:59:51;96790.44;;;17.10
61595;BMP280;47397;48.194;11.632;2023-06-24T01:00:51;96797.16;;;17.14
61595;BMP280;47397;48.194;11.632;2023-06-24T01:01:52;96792.19;;;17.10
61595;BMP280;47397;48.194;11.632;2023-06-24T01:02:54;96790.41;;;17.12
61595;BMP280;47397;48.194;11.632;2023-06-24T01:03:55;96789.63;;;17.10
61595;BMP280;47397;48.194;11.632;2023-06-24T01:04:55;96792.59;;;16.98
61595;BMP280;47397;48.194;11.632;2023-06-24T01:05:56;96783.78;;;17.05
61595;BMP280;47397;48.194;11.632;2023-06-24T01:06:57;96788.63;;;16.89
61595;BMP280;47397;48.194;11.632;2023-06-24T01:07:57;96782.25;;;16.99
61595;BMP280;47397;48.194;11.632;2023-06-24T01:08:59;96788.78;;;16.84
61595;BMP280;47397;48.194;11.632;2023-06-24T01:10:00;96789.06;;;17.00
61595;BMP280;47397;48.194;11.632;2023-06-24T01:11:00;96788.34;;;16.97
61595;BMP280;47397;48.194;11.632;2023-06-24T01:12:01;96789.28;;;16.94
61595;BMP280;47397;48.194;11.632;2023-06-24T01:13:01;96789.41;;;16.91
61595;BMP280;47397;48.194;11.632;2023-06-24T01:14:02;96787.41;;;16.99
61595;BMP280;47397;48.194;11.632;2023-06-24T01:15:03;96785.72;;;16.98
61595;BMP280;47397;48.194;11.632;2023-06-24T01:16:09;96782.44;;;16.95
61595;BMP280;47397;48.194;11.632;2023-06-24T01:17:13;96785.00;;;16.95
61595;BMP280;47397;48.194;11.632;2023-06-24T01:18:21;96783.66;;;16.84
61595;BMP280;47397;48.194;11.632;2023-06-24T01:19:37;96779.66;;;16.76
61595;BMP280;47397;48.194;11.632;2023-06-24T01:20:44;96773.31;;;16.86
61595;BMP280;47397;48.194;11.632;2023-06-24T01:22:00;96778.06;;;16.97
61595;BMP280;47397;48.194;11.632;2023-06-24T01:23:25;96783.00;;;17.03
61595;BMP280;47397;48.194;11.632;2023-06-24T01:24:48;96780.38;;;17.04
61595;BMP280;47397;48.194;11.632;2023-06-24T01:26:01;96777.69;;;17.07
61595;BMP280;47397;48.194;11.632;2023-06-24T01:27:29;96775.97;;;17.08
61595;BMP280;47397;48.194;11.632;2023-06-24T01:28:57;96776.06;;;17.05
61595;BMP280;47397;48.194;11.632;2023-06-24T01:30:17;96774.34;;;17.05
61595;BMP280;47397;48.194;11.632;2023-06-24T01:31:34;96779.47;;;17.05
61595;BMP280;47397;48.194;11.632;2023-06-24T01:32:40;96768.63;;;16.97
61595;BMP280;47397;48.194;11.632;2023-06-24T01:33:46;96775.44;;;16.98
61595;BMP280;47397;48.194;11.632;2023-06-24T01:34:53;96775.06;;;16.85
61595;BMP280;47397;48.194;11.632;2023-06-24T01:35:55;96778.41;;;16.87
61595;BMP280;47397;48.194;11.632;2023-06-24T01:37:04;96777.97;;;17.00
61595;BMP280;47397;48.194;11.632;2023-06-24T01:38:08;96776.22;;;17.00
61595;BMP280;47397;48.194;11.632;2023-06-24T01:39:11;96773.94;;;16.93
61595;BMP280;47397;48.194;11.632;2023-06-24T01:40:17;96779.91;;;16.93
61595;BMP280;47397;48.194;11.632;2023-06-24T01:41:22;96777.97;;;17.00
61595;BMP280;47397;48.194;11.632;2023-06-24T01:42:24;96773.56;;;17.03
61595;BMP280;47397;48.194;11.632;2023-06-24T01:43:25;96777.91;;;17.01
61595;BMP280;47397;48.194;11.632;2023-06-24T01:44:27;96772.22;;;16.93
61595;BMP280;47397;48.194;11.632;2023-06-24T01:45:32;96773.50;;;17.05
61595;BMP280;47397;48.194;11.632;2023-06-24T01:46:35;96775.22;;;17.04
61595;BMP280;47397;48.194;11.632;2023-06-24T01:47:36;96773.66;;;17.00
61595;BMP280;47397;48.194;11.632;2023-06-24T01:48:38;96769.06;;;17.10
61595;BMP280;47397;48.194;11.632;2023-06-24T01:49:42;96762.22;;;17.09
61595;BMP280;47397;48.194;11.632;2023-06-24T01:52:05;96770.94;;;17.05
61595;BMP280;47397;48.194;11.632;2023-06-24T01:53:07;96770.25;;;17.00
61595;BMP280;47397;48.194;11.632;2023-06-24T01:54:11;96772.72;;;17.03
61595;BMP280;47397;48.194;11.632;2023-06-24T01:55:18;96771.56;;;17.11
61595;BMP280;47397;48.194;11.632;2023-06-24T01:56:22;96769.47;;;16.98
61595;BMP280;47397;48.194;11.632;2023-06-24T01:57:23;96766.34;;;16.90
61595;BMP280;47397;48.194;11.632;2023-06-24T01:58:25;96778.06;;;16.97
61595;BMP280;47397;48.194;11.632;2023-06-24T01:59:28;96780.41;;;17.03
61595;BMP280;47397;48.194;11.632;2023-06-24T02:00:29;96776.97;;;17.04
61595;BMP280;47397;48.194;11.632;2023-06-24T02:01:32;96780.38;;;17.04
61595;BMP280;47397;48.194;11.632;2023-06-24T02:02:34;96775.63;;;16.94
61595;BMP280;47397;48.194;11.632;2023-06-24T02:03:36;96770.53;;;16.92
61595;BMP280;47397;48.194;11.632;2023-06-24T02:04:38;96775.34;;;17.01
61595;BMP280;47397;48.194;11.632;2023-06-24T02:05:40;96776.19;;;17.02
61595;BMP280;47397;48.194;11.632;2023-06-24T02:06:42;96774.50;;;17.01
61595;BMP280;47397;48.194;11.632;2023-06-24T02:07:44;96770.16;;;17.03
61595;BMP280;47397;48.194;11.632;2023-06-24T02:08:45;96766.84;;;16.99
61595;BMP280;47397;48.194;11.632;2023-06-24T02:09:49;96759.38;;;16.93
61595;BMP280;47397;48.194;11.632;2023-06-24T02:10:51;96763.22;;;16.81
61595;BMP280;47397;48.194;11.632;2023-06-24T02:11:52;96764.84;;;16.84
61595;BMP280;47397;48.194;11.632;2023-06-24T02:12:54;96772.19;;;16.68
61595;BMP280;47397;48.194;11.632;2023-06-24T02:13:59;96766.34;;;16.90
61595;BMP280;47397;48.194;11.632;2023-06-24T02:15:02;96769.53;;;16.96
61595;BMP280;47397;48.194;11.632;2023-06-24T02:16:05;96763.00;;;16.87
61595;BMP280;47397;48.194;11.632;2023-06-24T02:17:08;96768.13;;;16.87
61595;BMP280;47397;48.194;11.632;2023-06-24T02:18:12;96767.63;;;17.01
61595;BMP280;47397;48.194;11.632;2023-06-24T02:19:14;96765.22;;;16.97
61595;BMP280;47397;48.194;11.632;2023-06-24T02:20:16;96769.59;;;16.95
61595;BMP280;47397;48.194;11.632;2023-06-24T02:21:17;96773.78;;;16.72
61595;BMP280;47397;48.194;11.632;2023-06-24T02:22:18;96770.84;;;16.83
61595;BMP280;47397;48.194;11.632;2023-06-24T02:23:21;96773.47;;;16.81
61595;BMP280;47397;48.194;11.632;2023-06-24T02:24:23;96766.44;;;16.86
61595;BMP280;47397;48.194;11.632;2023-06-24T02:25:25;96776.22;;;16.77
61595;BMP280;47397;48.194;11.632;2023-06-24T02:26:26;96783.59;;;16.86
61595;BMP280;47397;48.194;11.632;2023-06-24T02:27:27;96768.25;;;16.84
61595;BMP280;47397;48.194;11.632;2023-06-24T02:28:28;96776.88;;;16.82
61595;BMP280;47397;48.194;11.632;2023-06-24T02:29:30;96774.03;;;16.90
61595;BMP280;47397;48.194;11.632;2023-06-24T02:30:31;96773.03;;;16.94
61595;BMP280;47397;48.194;11.632;2023-06-24T02:31:32;96779.63;;;17.01
61595;BMP280;47397;48.194;11.632;2023-06-24T02:32:33;96776.28;;;16.99
61595;BMP280;47397;48.194;11.632;2023-06-24T02:33:35;96774.72;;;16.70
61595;BMP280;47397;48.194;11.632;2023-06-24T02:34:35;96773.38;;;16.84
61595;BMP280;47397;48.194;11.632;2023-06-24T02:35:36;96782.69;;;16.87
61595;BMP280;47397;48.194;11.632;2023-06-24T02:36:36;96779.13;;;16.91
61595;BMP280;47397;48.194;11.632;2023-06-24T02:37:37;96776.63;;;16.90
61595;BMP280;47397;48.194;11.632;2023-06-24T02:38:37;96778.06;;;16.97
61595;BMP280;47397;48.194;11.632;2023-06-24T02:39:38;96777.72;;;16.82
61595;BMP280;47397;48.194;11.632;2023-06-24T02:40:38;96779.84;;;16.95
61595;BMP280;47397;48.194;11.632;2023-06-24T02:41:38;96778.13;;;16.95
61595;BMP280;47397;48.194;11.632;2023-06-24T02:42:39;96784.03;;;16.74
61595;BMP280;47397;48.194;11.632;2023-06-24T02:43:39;96785.53;;;16.79
61595;BMP280;47397;48.194;11.632;2023-06-24T02:44:40;96779.41;;;16.83
61595;BMP280;47397;48.194;11.632;2023-06-24T02:45:41;96783.03;;;16.78
61595;BMP280;47397;48.194;11.632;2023-06-24T02:46:42;96783.19;;;16.73
61595;BMP280;47397;48.194;11.632;2023-06-24T02:47:45;96787.22;;;16.80
61595;BMP280;47397;48.194;11.632;2023-06-24T02:48:48;96779.97;;;16.67
61595;BMP280;47397;48.194;11.632;2023-06-24T02:49:49;96782.66;;;16.62
61595;BMP280;47397;48.194;11.632;2023-06-24T02:50:51;96794.19;;;16.77
61595;BMP280;47397;48.194;11.632;2023-06-24T02:51:51;96792.06;;;16.62
61595;BMP280;47397;48.194;11.632;2023-06-24T02:52:52;96785.81;;;16.70
61595;BMP280;47397;48.194;11.632;2023-06-24T02:53:53;96796.03;;;16.73
61595;BMP280;47397;48.194;11.632;2023-06-24T02:54:54;96792.63;;;16.71
61595;BMP280;47397;48.194;11.632;2023-06-24T02:55:55;96799.72;;;16.63
61595;BMP280;47397;48.194;11.632;2023-06-24T02:56:56;96799.66;;;16.66
61595;BMP280;47397;48.194;11.632;2023-06-24T02:57:57;96798.66;;;16.70
61595;BMP280;47397;48.194;11.632;2023-06-24T02:58:58;96797.69;;;16.74
61595;BMP280;47397;48.194;11.632;2023-06-24T02:59:58;96801.06;;;16.76
61595;BMP280;47397;48.194;11.632;2023-06-24T03:00:59;96803.66;;;16.75
61595;BMP280;47397;48.194;11.632;2023-06-24T03:02:00;96797.25;;;16.86
61595;BMP280;47397;48.194;11.632;2023-06-24T03:03:02;96808.31;;;16.88
61595;BMP280;47397;48.194;11.632;2023-06-24T03:04:05;96808.16;;;16.93
61595;BMP280;47397;48.194;11.632;2023-06-24T03:05:06;96798.50;;;17.00
61595;BMP280;47397;48.194;11.632;2023-06-24T03:06:07;96808.38;;;16.87
61595;BMP280;47397;48.194;11.632;2023-06-24T03:07:08;96812.50;;;16.91
61595;BMP280;47397;48.194;11.632;2023-06-24T03:08:10;96817.19;;;16.80
61595;BMP280;47397;48.194;11.632;2023-06-24T03:09:10;96814.06;;;16.70
61595;BMP280;47397;48.194;11.632;2023-06-24T03:10:11;96818.31;;;16.71
61595;BMP280;47397;48.194;11.632;2023-06-24T03:11:12;96812.84;;;16.82
61595;BMP280;47397;48.194;11.632;2023-06-24T03:12:12;96811.50;;;16.70
61595;BMP280;47397;48.194;11.632;2023-06-24T03:13:13;96818.84;;;16.81
61595;BMP280;47397;48.194;11.632;2023-06-24T03:14:13;96814.78;;;16.75
61595;BMP280;47397;48.194;11.632;2023-06-24T03:15:14;96818.13;;;16.77
61595;BMP280;47397;48.194;11.632;2023-06-24T03:16:14;96814.81;;;16.74
61595;BMP280;47397;48.194;11.632;2023-06-24T03:17:15;96818.59;;;16.62
61595;BMP280;47397;48.194;11.632;2023-06-24T03:18:16;96820.19;;;16.66
61595;BMP280;47397;48.194;11.632;2023-06-24T03:19:18;96814.66;;;16.78
61595;BMP280;47397;48.194;11.632;2023-06-24T03:20:18;96813.09;;;16.74
61595;BMP280;47397;48.194;11.632;2023-06-24T03:21:19;96817.53;;;16.69
61595;BMP280;47397;48.194;11.632;2023-06-24T03:22:20;96815.91;;;16.65
61595;BMP280;47397;48.194;11.632;2023-06-24T03:23:21;96816.84;;;16.63
61595;BMP280;47397;48.194;11.632;2023-06-24T03:24:21;96818.31;;;16.71
61595;BMP280;47397;48.194;11.632;2023-06-24T03:25:21;96820.81;;;16.74
61595;BMP280;47397;48.194;11.632;2023-06-24T03:26:22;96825.34;;;16.65
61595;BMP280;47397;48.194;11.632;2023-06-24T03:27:22;96829.34;;;16.75
61595;BMP280;47397;48.194;11.632;2023-06-24T03:28:23;96830.19;;;16.75
61595;BMP280;47397;48.194;11.632;2023-06-24T03:29:23;96830.97;;;16.77
61595;BMP280;47397;48.194;11.632;2023-06-24T03:30:24;96838.47;;;16.83
61595;BMP280;47397;48.194;11.632;2023-06-24T03:31:24;96829.06;;;16.56
61595;BMP280;47397;48.194;11.632;2023-06-24T03:32:25;96838.44;;;16.57
61595;BMP280;47397;48.194;11.632;2023-06-24T03:33:25;96834.66;;;16.69
61595;BMP280;47397;48.194;11.632;2023-06-24T03:34:27;96834.69;;;16.67
61595;BMP280;47397;48.194;11.632;2023-06-24T03:35:27;96832.22;;;16.64
61595;BMP280;47397;48.194;11.632;2023-06-24T03:36:28;96833.69;;;16.73
61595;BMP280;47397;48.194;11.632;2023-06-24T03:37:28;96831.41;;;16.62
61595;BMP280;47397;48.194;11.632;2023-06-24T03:38:29;96836.38;;;16.68
61595;BMP280;47397;48.194;11.632;2023-06-24T03:39:29;96832.03;;;16.44
61595;BMP280;47397;48.194;11.632;2023-06-24T03:40:29;96832.13;;;16.67
61595;BMP280;47397;48.194;11.632;2023-06-24T03:41:30;96834.44;;;16.76
61595;BMP280;47397;48.194;11.632;2023-06-24T03:42:31;96833.59;;;16.76
61595;BMP280;47397;48.194;11.632;2023-06-24T03:43:31;96836.84;;;16.81
61595;BMP280;47397;48.194;11.632;2023-06-24T03:44:31;96837.69;;;16.81
61595;BMP280;47397;48.194;11.632;2023-06-24T03:45:32;96840.19;;;16.83
61595;BMP280;47397;48.194;11.632;2023-06-24T03:46:32;96842.25;;;16.72
61595;BMP280;47397;48.194;11.632;2023-06-24T03:47:33;96841.41;;;16.71
61595;BMP280;47397;48.194;11.632;2023-06-24T03:48:33;96835.38;;;16.72
61595;BMP280;47397;48.194;11.632;2023-06-24T03:49:35;96837.88;;;16.75
61595;BMP280;47397;48.194;11.632;2023-06-24T03:50:35;96834.56;;;16.72
61595;BMP280;47397;48.194;11.632;2023-06-24T03:51:36;96843.84;;;16.76
61595;BMP280;47397;48.194;11.632;2023-06-24T03:52:36;96837.94;;;16.74
61595;BMP280;47397;48.194;11.632;2023-06-24T03:53:36;96838.38;;;16.58
61595;BMP280;47397;48.194;11.632;2023-06-24T03:54:37;96837.09;;;16.73
61595;BMP280;47397;48.194;11.632;2023-06-24T03:55:37;96835.94;;;16.82
61595;BMP280;47397;48.194;11.632;2023-06-24T03:56:38;96837.03;;;16.75
61595;BMP280;47397;48.194;11.632;2023-06-24T03:57:38;96835.63;;;16.65
61595;BMP280;47397;48.194;11.632;2023-06-24T03:58:39;96835.72;;;16.62
61595;BMP280;47397;48.194;11.632;2023-06-24T03:59:39;96836.22;;;16.74
61595;BMP280;47397;48.194;11.632;2023-06-24T04:00:39;96839.13;;;16.88
61595;BMP280;47397;48.194;11.632;2023-06-24T04:01:40;96837.41;;;16.89
61595;BMP280;47397;48.194;11.632;2023-06-24T04:02:40;96843.50;;;16.86
61595;BMP280;47397;48.194;11.632;2023-06-24T04:03:41;96838.34;;;16.86
61595;BMP280;47397;48.194;11.632;2023-06-24T04:04:43;96846.41;;;16.76
61595;BMP280;47397;48.194;11.632;2023-06-24T04:05:43;96845.03;;;16.64
61595;BMP280;47397;48.194;11.632;2023-06-24T04:06:43;96844.88;;;16.70
61595;BMP280;47397;48.194;11.632;2023-06-24T04:07:44;96845.03;;;16.64
61595;BMP280;47397;48.194;11.632;2023-06-24T04:08:44;96834.47;;;16.75
61595;BMP280;47397;48.194;11.632;2023-06-24T04:09:45;96845.28;;;16.84
61595;BMP280;47397;48.194;11.632;2023-06-24T04:10:45;96850.31;;;16.87
61595;BMP280;47397;48.194;11.632;2023-06-24T04:11:46;96840.41;;;16.77
61595;BMP280;47397;48.194;11.632;2023-06-24T04:12:46;96840.53;;;16.72
61595;BMP280;47397;48.194;11.632;2023-06-24T04:13:46;96846.53;;;16.73
61595;BMP280;47397;48.194;11.632;2023-06-24T04:14:47;96836.78;;;16.82
61595;BMP280;47397;48.194;11.632;2023-06-24T04:15:47;96843.50;;;16.86
61595;BMP280;47397;48.194;11.632;2023-06-24T04:16:48;96842.97;;;16.77
61595;BMP280;47397;48.194;11.632;2023-06-24T04:17:48;96840.88;;;16.88
61595;BMP280;47397;48.194;11.632;2023-06-24T04:18:49;96839.41;;;16.81
61595;BMP280;47397;48.194;11.632;2023-06-24T04:19:50;96829.06;;;16.82
61595;BMP280;47397;48.194;11.632;2023-06-24T04:20:51;96836.47;;;16.92
61595;BMP280;47397;48.194;11.632;2023-06-24T04:21:51;96837.34;;;16.91
61595;BMP280;47397;48.194;11.632;2023-06-24T04:22:52;96837.19;;;16.95
61595;BMP280;47397;48.194;11.632;2023-06-24T04:23:52;96839.72;;;16.97
61595;BMP280;47397;48.194;11.632;2023-06-24T04:24:52;96837.88;;;17.00
61595;BMP280;47397;48.194;11.632;2023-06-24T04:25:53;96842.13;;;17.01
61595;BMP280;47397;48.194;11.632;2023-06-24T04:26:53;96846.47;;;16.99
61595;BMP280;47397;48.194;11.632;2023-06-24T04:27:54;96844.41;;;17.09
61595;BMP280;47397;48.194;11.632;2023-06-24T04:28:54;96839.88;;;17.17
61595;BMP280;47397;48.194;11.632;2023-06-24T04:29:55;96833.31;;;17.08
61595;BMP280;47397;48.194;11.632;2023-06-24T04:30:56;96845.38;;;17.06
61595;BMP280;47397;48.194;11.632;2023-06-24T04:31:56;96847.25;;;17.01
61595;BMP280;47397;48.194;11.632;2023-06-24T04:32:57;96842.84;;;17.05
61595;BMP280;47397;48.194;11.632;2023-06-24T04:33:57;96841.66;;;17.15
61595;BMP280;47397;48.194;11.632;2023-06-24T04:34:59;96840.66;;;17.19
61595;BMP280;47397;48.194;11.632;2023-06-24T04:35:59;96848.00;;;17.30
61595;BMP280;47397;48.194;11.632;2023-06-24T04:37:00;96849.06;;;17.24
61595;BMP280;47397;48.194;11.632;2023-06-24T04:38:00;96840.50;;;17.24
61595;BMP280;47397;48.194;11.632;2023-06-24T04:39:01;96846.66;;;17.19
61595;BMP280;47397;48.194;11.632;2023-06-24T04:40:01;96846.31;;;17.29
61595;BMP280;47397;48.194;11.632;2023-06-24T04:41:02;96852.28;;;17.29
61595;BMP280;47397;48.194;11.632;2023-06-24T04:42:03;96849.44;;;17.37
61595;BMP280;47397;48.194;11.632;2023-06-24T04:43:03;96848.28;;;17.45
61595;BMP280;47397;48.194;11.632;2023-06-24T04:44:04;96851.66;;;17.47
61595;BMP280;47397;48.194;11.632;2023-06-24T04:45:05;96849.78;;;17.28
61595;BMP280;47397;48.194;11.632;2023-06-24T04:46:05;96850.50;;;17.31
61595;BMP280;47397;48.194;11.632;2023-06-24T04:47:06;96854.66;;;17.35
61595;BMP280;47397;48.194;11.632;2023-06-24T04:48:06;96852.84;;;17.37
61595;BMP280;47397;48.194;11.632;2023-06-24T04:49:07;96849.44;;;17.37
61595;BMP280;47397;48.194;11.632;2023-06-24T04:50:09;96856.25;;;17.38
61595;BMP280;47397;48.194;11.632;2023-06-24T04:51:10;96854.38;;;17.43
61595;BMP280;47397;48.194;11.632;2023-06-24T04:52:11;96856.38;;;17.35
61595;BMP280;47397;48.194;11.632;2023-06-24T04:53:12;96862.50;;;17.31
61595;BMP280;47397;48.194;11.632;2023-06-24T04:54:12;96859.09;;;17.30
61595;BMP280;47397;48.194;11.632;2023-06-24T04:55:13;96862.69;;;17.26
61595;BMP280;47397;48.194;11.632;2023-06-24T04:56:13;96862.56;;;17.29
61595;BMP280;47397;48.194;11.632;2023-06-24T04:57:23;96864.03;;;17.36
61595;BMP280;47397;48.194;11.632;2023-06-24T04:58:24;96857.09;;;17.38
61595;BMP280;47397;48.194;11.632;2023-06-24T04:59:24;96865.25;;;17.26
61595;BMP280;47397;48.194;11.632;2023-06-24T05:00:24;96868.22;;;17.39
61595;BMP280;47397;48.194;11.632;2023-06-24T05:01:25;96860.34;;;17.43
61595;BMP280;47397;48.194;11.632;2023-06-24T05:02:25;96861.56;;;17.33
61595;BMP280;47397;48.194;11.632;2023-06-24T05:03:26;96867.50;;;17.35
61595;BMP280;47397;48.194;11.632;2023-06-24T05:04:26;96868.88;;;17.21
61595;BMP280;47397;48.194;11.632;2023-06-24T05:05:28;96858.84;;;17.38
61595;BMP280;47397;48.194;11.632;2023-06-24T05:06:29;96859.41;;;17.46
61595;BMP280;47397;48.194;11.632;2023-06-24T05:07:29;96863.69;;;17.45
61595;BMP280;47397;48.194;11.632;2023-06-24T05:08:29;96861.94;;;17.47
61595;BMP280;47397;48.194;11.632;2023-06-24T05:09:30;96865.72;;;17.37
61595;BMP280;47397;48.194;11.632;2023-06-24T05:10:30;96862.97;;;17.42
61595;BMP280;47397;48.194;11.632;2023-06-24T05:11:31;96872.69;;;17.34
61595;BMP280;47397;48.194;11.632;2023-06-24T05:12:31;96861.34;;;17.39
61595;BMP280;47397;48.194;11.632;2023-06-24T05:13:32;96870.63;;;17.43
61595;BMP280;47397;48.194;11.632;2023-06-24T05:14:34;96864.41;;;17.50
61595;BMP280;47397;48.194;11.632;2023-06-24T05:15:34;96865.91;;;17.56
61595;BMP280;47397;48.194;11.632;2023-06-24T05:16:35;96869.16;;;17.36
61595;BMP280;47397;48.194;11.632;2023-06-24T05:17:35;96864.66;;;17.43
61595;BMP280;47397;48.194;11.632;2023-06-24T05:18:36;96869.94;;;17.38
61595;BMP280;47397;48.194;11.632;2023-06-24T05:19:36;96864.81;;;17.38
61595;BMP280;47397;48.194;11.632;2023-06-24T05:20:38;96864.47;;;17.49
61595;BMP280;47397;48.194;11.632;2023-06-24T05:21:38;96869.16;;;17.61
61595;BMP280;47397;48.194;11.632;2023-06-24T05:22:39;96869.09;;;17.63
61595;BMP280;47397;48.194;11.632;2023-06-24T05:23:39;96868.41;;;17.58
61595;BMP280;47397;48.194;11.632;2023-06-24T05:24:40;96868.66;;;17.75
61595;BMP280;47397;48.194;11.632;2023-06-24T05:25:40;96869.13;;;17.86
61595;BMP280;47397;48.194;11.632;2023-06-24T05:26:41;96868.97;;;17.91
61595;BMP280;47397;48.194;11.632;2023-06-24T05:27:41;96865.91;;;17.79
61595;BMP280;47397;48.194;11.632;2023-06-24T05:28:41;96875.19;;;17.84
61595;BMP280;47397;48.194;11.632;2023-06-24T05:29:42;96867.22;;;17.91
61595;BMP280;47397;48.194;11.632;2023-06-24T05:30:44;96874.16;;;17.89
61595;BMP280;47397;48.194;11.632;2023-06-24T05:31:44;96875.53;;;17.98
61595;BMP280;47397;48.194;11.632;2023-06-24T05:32:45;96873.63;;;18.03
61595;BMP280;47397;48.194;11.632;2023-06-24T05:33:46;96867.09;;;17.94
61595;BMP280;47397;48.194;11.632;2023-06-24T05:34:46;96873.94;;;17.95
61595;BMP280;47397;48.194;11.632;2023-06-24T05:35:48;96868.72;;;17.73
61595;BMP280;47397;48.194;11.632;2023-06-24T05:36:49;96877.78;;;17.84
61595;BMP280;47397;48.194;11.632;2023-06-24T05:37:49;96875.25;;;17.82
61595;BMP280;47397;48.194;11.632;2023-06-24T05:38:50;96875.38;;;18.02
61595;BMP280;47397;48.194;11.632;2023-06-24T05:39:50;96880.03;;;18.15
61595;BMP280;47397;48.194;11.632;2023-06-24T05:40:51;96876.25;;;18.25
61595;BMP280;47397;48.194;11.632;2023-06-24T05:41:51;96880.47;;;18.04
61595;BMP280;47397;48.194;11.632;2023-06-24T05:42:51;96867.97;;;18.17
61595;BMP280;47397;48.194;11.632;2023-06-24T05:44:01;96870.34;;;17.99
61595;BMP280;47397;48.194;11.632;2023-06-24T05:45:02;96873.63;;;18.26
61595;BMP280;47397;48.194;11.632;2023-06-24T05:46:02;96876.53;;;18.39
61595;BMP280;47397;48.194;11.632;2023-06-24T05:47:03;96880.13;;;18.35
61595;BMP280;47397;48.194;11.632;2023-06-24T05:48:04;96870.72;;;18.34
61595;BMP280;47397;48.194;11.632;2023-06-24T05:49:05;96880.16;;;18.55
61595;BMP280;47397;48.194;11.632;2023-06-24T05:50:06;96878.06;;;18.66
61595;BMP280;47397;48.194;11.632;2023-06-24T05:51:08;96877.94;;;18.69